Time;durP1;ratioP1;P1;durP2;ratioP2;P2;SDS_P1;SDS_P2;PMS_P1;PMS_P2;Temp;Humidity;BMP_temperature;BMP_pressure;BME280_temperature;BME280_humidity;BME280_pressure;Samples;Min_cycle;Max_cycle;Signal;HPM_P1;HPM_P2
2022/07/08 00:00:18;;;;;;;5.00;1.70;;;;;;;15.30;59.03;101538.56;4917046;28;20066;-76
2022/07/08 00:02:45;;;;;;;10.82;1.80;;;;;;;15.29;58.93;101544.84;4918076;28;20048;-75
2022/07/08 00:05:12;;;;;;;6.07;1.73;;;;;;;15.26;59.34;101545.03;4917116;28;20067;-73
2022/07/08 00:07:39;;;;;;;7.32;1.98;;;;;;;15.22;59.63;101541.63;4917955;28;20048;-77
2022/07/08 00:10:06;;;;;;;7.10;2.00;;;;;;;15.22;59.50;101548.78;4922853;29;20047;-78
2022/07/08 00:12:34;;;;;;;5.38;1.80;;;;;;;15.18;59.16;101550.72;4916703;28;20043;-77
2022/07/08 00:15:01;;;;;;;6.47;1.67;;;;;;;15.16;59.78;101557.06;4918136;28;20096;-78
2022/07/08 00:17:28;;;;;;;5.43;1.52;;;;;;;15.04;59.91;101535.38;4915942;28;20119;-78
2022/07/08 00:19:54;;;;;;;7.85;1.88;;;;;;;15.11;60.06;101543.94;4916577;28;20063;-73
2022/07/08 00:22:21;;;;;;;8.18;1.67;;;;;;;15.04;60.12;101546.03;4918600;28;20107;-78
2022/07/08 00:24:48;;;;;;;3.83;1.38;;;;;;;14.96;60.29;101534.84;4915025;28;20148;-76
2022/07/08 00:27:14;;;;;;;9.05;1.88;;;;;;;15.00;60.50;101548.91;4913749;28;20052;-75
2022/07/08 00:29:41;;;;;;;5.53;1.60;;;;;;;14.96;60.65;101561.53;4920637;28;20485;-77
2022/07/08 00:32:08;;;;;;;7.00;1.52;;;;;;;14.94;60.98;101560.75;4918848;28;20075;-77
2022/07/08 00:34:35;;;;;;;6.05;1.60;;;;;;;14.97;60.80;101568.59;4918598;28;20067;-77
2022/07/08 00:37:03;;;;;;;6.75;1.50;;;;;;;14.86;60.95;101541.56;4915256;29;20056;-75
2022/07/08 00:39:30;;;;;;;6.38;2.00;;;;;;;15.00;60.61;101565.78;4917621;29;20107;-76
2022/07/08 00:41:57;;;;;;;5.07;1.33;;;;;;;14.96;60.55;101569.53;4920063;28;20143;-78
2022/07/08 00:44:24;;;;;;;8.38;1.77;;;;;;;14.90;60.46;101563.63;4917295;28;20405;-76
2022/07/08 00:46:51;;;;;;;5.72;1.50;;;;;;;14.85;60.99;101571.81;4918192;28;20829;-74
2022/07/08 00:49:18;;;;;;;5.13;1.52;;;;;;;14.73;61.10;101572.41;4915598;28;20055;-73
2022/07/08 00:51:47;;;;;;;5.97;1.70;;;;;;;14.73;61.28;101583.06;4917930;29;20118;-76
2022/07/08 00:54:16;;;;;;;6.63;1.80;;;;;;;14.72;61.20;101586.66;4913712;29;20055;-77
2022/07/08 00:56:43;;;;;;;5.35;1.70;;;;;;;14.64;61.51;101570.13;4914726;28;20052;-77
2022/07/08 00:59:10;;;;;;;4.28;1.50;;;;;;;14.66;61.37;101579.78;4915507;28;20055;-78
2022/07/08 01:01:37;;;;;;;7.10;1.52;;;;;;;14.69;61.45;101577.00;4931667;28;20051;-78
2022/07/08 01:04:04;;;;;;;6.60;2.00;;;;;;;14.69;61.81;101584.13;4931545;28;20052;-77
2022/07/08 01:06:33;;;;;;;8.63;1.50;;;;;;;14.68;61.73;101593.94;4917849;28;20044;-76
2022/07/08 01:09:00;;;;;;;6.05;1.70;;;;;;;14.68;61.93;101588.59;4919739;29;20086;-73
2022/07/08 01:11:26;;;;;;;7.63;1.92;;;;;;;14.69;61.88;101585.00;4919158;29;20517;-78
2022/07/08 01:13:54;;;;;;;4.35;1.70;;;;;;;14.54;61.96;101556.38;4920228;29;20048;-74
2022/07/08 01:16:20;;;;;;;6.05;1.30;;;;;;;14.70;62.43;101584.06;4920643;28;20055;-76
2022/07/08 01:18:47;;;;;;;5.85;1.45;;;;;;;14.69;61.87;101579.66;4918828;28;20051;-73
2022/07/08 01:21:14;;;;;;;8.43;1.60;;;;;;;14.72;62.29;101571.53;4921268;28;20074;-77
2022/07/08 01:23:41;;;;;;;9.70;1.88;;;;;;;14.69;62.32;101574.31;4918669;29;20066;-77
2022/07/08 01:26:13;;;;;;;3.60;1.65;;;;;;;14.65;62.30;101567.41;4920284;28;20461;-75
2022/07/08 01:28:42;;;;;;;5.78;1.48;;;;;;;14.72;62.17;101584.00;4919338;28;20190;-73
2022/07/08 01:31:09;;;;;;;7.38;1.85;;;;;;;14.70;62.48;101584.06;4921463;28;20044;-78
2022/07/08 01:33:37;;;;;;;4.72;1.20;;;;;;;14.50;62.41;101557.41;4930562;29;20048;-72
2022/07/08 01:36:04;;;;;;;5.95;1.45;;;;;;;14.65;62.75;101599.38;4929189;28;20060;-77
2022/07/08 01:38:31;;;;;;;6.53;1.80;;;;;;;14.58;62.71;101581.09;4931777;28;20560;-78
2022/07/08 01:40:59;;;;;;;6.28;1.40;;;;;;;14.46;62.22;101568.31;4932894;28;20056;-74
2022/07/08 01:43:26;;;;;;;5.60;1.80;;;;;;;14.58;62.73;101597.94;4929261;29;20056;-76
2022/07/08 01:45:53;;;;;;;4.78;1.33;;;;;;;14.57;63.16;101598.88;4923581;28;20070;-77
2022/07/08 01:48:19;;;;;;;3.95;1.50;;;;;;;14.50;62.97;101589.41;4917437;28;20520;-76
2022/07/08 01:50:46;;;;;;;5.15;1.13;;;;;;;14.53;63.30;101605.28;4915404;29;20070;-75
2022/07/08 01:53:13;;;;;;;5.47;1.60;;;;;;;14.39;63.62;101592.53;4919649;28;20122;-76
2022/07/08 01:55:40;;;;;;;4.85;1.70;;;;;;;14.41;63.58;101613.81;4923790;29;20839;-73
2022/07/08 01:58:06;;;;;;;8.48;2.45;;;;;;;14.29;64.25;101612.53;4916003;29;20055;-77
2022/07/08 02:00:33;;;;;;;9.65;1.85;;;;;;;14.25;64.76;101610.03;4917062;28;20060;-76
2022/07/08 02:03:00;;;;;;;5.20;1.65;;;;;;;14.09;64.68;101582.31;4926301;28;20082;-75
2022/07/08 02:05:27;;;;;;;8.05;1.58;;;;;;;13.96;64.61;101566.88;4915937;29;20467;-73
2022/07/08 02:07:53;;;;;;;5.47;1.65;;;;;;;14.11;65.26;101589.31;4918570;28;20134;-77
2022/07/08 02:10:20;;;;;;;6.68;1.58;;;;;;;14.26;64.76;101606.44;4917782;29;20127;-72
2022/07/08 02:12:47;;;;;;;5.78;1.50;;;;;;;14.19;64.48;101597.84;4916733;29;20501;-78
2022/07/08 02:15:13;;;;;;;5.07;1.92;;;;;;;14.24;64.74;101609.19;4919623;29;20062;-77
2022/07/08 02:17:42;;;;;;;5.55;1.63;;;;;;;14.27;64.76;101611.72;4920313;29;20056;-77
2022/07/08 02:20:11;;;;;;;3.80;1.50;;;;;;;14.14;64.43;101589.19;4917646;29;20075;-77
2022/07/08 02:22:38;;;;;;;4.57;1.40;;;;;;;14.31;64.75;101613.31;4920566;28;20139;-76
2022/07/08 02:25:06;;;;;;;4.07;1.27;;;;;;;14.42;64.10;101610.22;4925875;29;20420;-76
2022/07/08 02:27:32;;;;;;;8.35;1.80;;;;;;;14.34;63.87;101599.84;4928001;28;20080;-71
2022/07/08 02:29:59;;;;;;;7.07;1.80;;;;;;;14.27;64.38;101603.72;4929652;28;20063;-75
2022/07/08 02:32:26;;;;;;;6.35;1.75;;;;;;;14.30;64.36;101611.59;4934630;28;20048;-76
2022/07/08 02:34:52;;;;;;;6.25;1.70;;;;;;;14.29;64.66;101619.66;4918230;28;20062;-77
2022/07/08 02:37:20;;;;;;;9.32;1.90;;;;;;;14.28;64.49;101615.25;4918190;28;20052;-77
2022/07/08 02:39:47;;;;;;;5.90;1.60;;;;;;;14.28;64.83;101612.59;4920567;29;21867;-76
2022/07/08 02:42:14;;;;;;;5.65;1.58;;;;;;;14.33;64.55;101623.88;4922818;29;20055;-75
2022/07/08 02:44:40;;;;;;;6.45;1.77;;;;;;;14.29;64.61;101617.84;4919219;28;20090;-76
2022/07/08 02:47:08;;;;;;;6.68;1.90;;;;;;;14.16;64.89;101608.66;4921711;28;20465;-79
2022/07/08 02:49:35;;;;;;;6.93;1.90;;;;;;;14.02;65.05;101606.53;4920715;28;20051;-73
2022/07/08 02:52:02;;;;;;;4.03;1.48;;;;;;;13.78;65.38;101572.09;4918329;28;20070;-77
2022/07/08 02:54:29;;;;;;;7.22;1.63;;;;;;;14.01;65.53;101617.25;4913402;28;20302;-76
2022/07/08 02:56:56;;;;;;;5.40;1.70;;;;;;;14.10;65.80;101632.88;4921283;28;20123;-74
2022/07/08 02:59:22;;;;;;;7.32;1.98;;;;;;;14.07;65.94;101634.78;4920118;29;20052;-77
2022/07/08 03:01:49;;;;;;;7.65;1.52;;;;;;;14.09;65.77;101631.13;4920541;28;20107;-75
2022/07/08 03:04:16;;;;;;;5.97;1.50;;;;;;;14.03;66.06;101640.25;4923663;28;20059;-75
2022/07/08 03:06:43;;;;;;;4.25;1.30;;;;;;;14.03;65.90;101636.72;4917980;28;20063;-78
2022/07/08 03:09:10;;;;;;;5.18;1.65;;;;;;;14.01;66.40;101639.44;4917860;28;20035;-75
2022/07/08 03:11:36;;;;;;;6.90;1.50;;;;;;;14.01;66.18;101633.22;4921008;28;20051;-74
2022/07/08 03:14:03;;;;;;;5.57;1.50;;;;;;;13.95;66.26;101614.88;4918178;28;20063;-76
2022/07/08 03:16:31;;;;;;;6.72;1.30;;;;;;;14.15;65.70;101640.69;4917935;28;20131;-75
2022/07/08 03:18:58;;;;;;;7.72;1.80;;;;;;;14.15;65.88;101632.69;4919471;29;20043;-76
2022/07/08 03:21:25;;;;;;;4.30;1.98;;;;;;;14.21;65.64;101635.06;4919484;28;20044;-74
2022/07/08 03:23:52;;;;;;;9.35;1.85;;;;;;;14.28;65.49;101647.22;4917671;28;20095;-77
2022/07/08 03:26:18;;;;;;;6.88;1.77;;;;;;;14.18;65.45;101617.41;4918065;29;20083;-76
2022/07/08 03:28:45;;;;;;;7.68;1.73;;;;;;;14.34;65.14;101642.47;4918441;28;20059;-74
2022/07/08 03:31:11;;;;;;;7.70;2.05;;;;;;;14.30;64.91;101634.69;4912952;28;20472;-75
2022/07/08 03:33:38;;;;;;;3.58;1.20;;;;;;;14.40;64.98;101636.06;4924103;28;20262;-74
2022/07/08 03:36:08;;;;;;;5.78;1.60;;;;;;;14.45;64.48;101633.22;4917458;28;20090;-77
2022/07/08 03:38:36;;;;;;;10.30;2.03;;;;;;;14.50;64.44;101648.03;4914961;28;20094;-77
2022/07/08 03:41:22;;;;;;;6.40;1.48;;;;;;;14.49;64.26;101648.97;4918009;28;20131;-77
2022/07/08 03:43:51;;;;;;;7.20;1.75;;;;;;;14.43;64.09;101643.06;4918616;29;20101;-73
2022/07/08 03:46:18;;;;;;;6.22;1.90;;;;;;;14.27;64.65;101649.00;4915814;28;20039;-74
2022/07/08 03:48:45;;;;;;;7.00;1.85;;;;;;;14.30;64.74;101658.69;4917102;28;20126;-76
2022/07/08 03:51:13;;;;;;;7.65;2.33;;;;;;;14.12;65.07;101636.34;4918576;28;20048;-75
2022/07/08 03:53:40;;;;;;;5.95;2.13;;;;;;;14.20;64.88;101662.66;4914229;29;21117;-75
2022/07/08 03:56:07;;;;;;;11.82;1.75;;;;;;;14.17;64.99;101658.31;4916718;28;20075;-75
2022/07/08 03:58:34;;;;;;;5.38;1.40;;;;;;;14.19;65.37;101671.56;4918304;28;20063;-76
2022/07/08 04:01:02;;;;;;;5.85;1.42;;;;;;;14.17;65.75;101665.44;4918989;29;20493;-77
2022/07/08 04:03:29;;;;;;;6.88;1.50;;;;;;;14.15;66.31;101669.97;4912933;28;20134;-76
2022/07/08 04:05:56;;;;;;;4.93;1.73;;;;;;;14.14;66.19;101669.13;4915425;28;20059;-75
2022/07/08 04:08:22;;;;;;;4.00;1.60;;;;;;;14.12;66.56;101673.63;4913583;28;20136;-75
2022/07/08 04:10:49;;;;;;;6.55;1.70;;;;;;;13.95;66.94;101644.16;4919055;29;20052;-75
2022/07/08 04:13:18;;;;;;;6.38;1.58;;;;;;;14.09;66.80;101657.78;4921399;28;20048;-76
2022/07/08 04:15:53;;;;;;;7.00;1.70;;;;;;;14.19;66.70;101668.91;4915696;28;20135;-71
2022/07/08 04:18:20;;;;;;;8.85;1.90;;;;;;;14.29;66.18;101672.94;4916964;28;20052;-76
2022/07/08 04:20:46;;;;;;;6.22;1.80;;;;;;;14.30;66.17;101678.19;4920267;28;20113;-78
2022/07/08 04:23:13;;;;;;;7.53;1.52;;;;;;;14.35;65.83;101675.31;4924621;28;20238;-76
2022/07/08 04:25:40;;;;;;;7.15;1.50;;;;;;;14.41;65.91;101679.56;4924251;28;20107;-75
2022/07/08 04:28:07;;;;;;;8.98;2.67;;;;;;;14.48;65.74;101686.38;4917811;28;20067;-77
2022/07/08 04:30:34;;;;;;;7.45;1.48;;;;;;;14.52;65.16;101677.31;4915100;28;20051;-76
2022/07/08 04:33:01;;;;;;;8.77;1.83;;;;;;;14.51;65.35;101687.09;4917075;28;20107;-75
2022/07/08 04:35:27;;;;;;;7.95;2.15;;;;;;;14.52;65.22;101686.16;4912179;28;20103;-77
2022/07/08 04:37:54;;;;;;;6.20;1.50;;;;;;;14.51;65.20;101688.91;4920817;28;20044;-77
2022/07/08 04:40:26;;;;;;;7.38;1.52;;;;;;;14.50;65.21;101660.50;4915958;28;20106;-73
2022/07/08 04:42:53;;;;;;;5.50;1.73;;;;;;;14.65;64.87;101678.50;4919240;28;20052;-78
2022/07/08 04:45:21;;;;;;;9.68;1.73;;;;;;;14.79;64.57;101686.78;4917179;29;20124;-76
2022/07/08 04:47:49;;;;;;;3.88;1.50;;;;;;;14.84;63.90;101684.75;4918437;28;20063;-76
2022/07/08 04:50:16;;;;;;;7.25;1.40;;;;;;;14.68;63.53;101657.03;4919863;28;20075;-77
2022/07/08 04:52:43;;;;;;;5.90;1.17;;;;;;;14.92;63.70;101700.44;4919576;29;20051;-75
2022/07/08 04:55:27;;;;;;;3.83;1.58;;;;;;;14.97;63.53;101712.63;4918398;28;20058;-73
2022/07/08 04:57:59;;;;;;;6.10;1.15;;;;;;;15.00;63.61;101707.16;4922822;29;20425;-73
2022/07/08 05:00:27;;;;;;;8.77;1.45;;;;;;;15.07;63.35;101719.31;4920422;29;20500;-76
2022/07/08 05:02:54;;;;;;;4.85;1.38;;;;;;;15.00;63.11;101691.16;4917959;29;20127;-76
2022/07/08 05:05:21;;;;;;;5.70;1.55;;;;;;;15.16;62.73;101712.69;4921631;29;20048;-72
2022/07/08 05:07:49;;;;;;;4.03;1.30;;;;;;;15.28;61.88;101708.56;4922926;29;20059;-76
2022/07/08 05:10:17;;;;;;;6.32;1.50;;;;;;;15.38;61.43;101721.44;4922076;28;20194;-78
2022/07/08 05:12:45;;;;;;;6.85;1.42;;;;;;;15.37;61.22;101705.50;4916704;28;20514;-75
2022/07/08 05:15:12;;;;;;;4.55;1.35;;;;;;;15.47;60.83;101719.28;4919167;28;20158;-73
2022/07/08 05:17:41;;;;;;;6.65;1.50;;;;;;;15.50;59.50;101724.47;4916260;28;20051;-76
2022/07/08 05:20:09;;;;;;;5.22;1.17;;;;;;;15.50;60.01;101725.34;4918321;28;20048;-78
2022/07/08 05:22:37;;;;;;;7.32;1.50;;;;;;;15.56;59.44;101729.59;4920364;28;20059;-74
2022/07/08 05:25:04;;;;;;;6.95;1.08;;;;;;;15.59;58.58;101724.06;4922415;28;20135;-76
2022/07/08 05:27:31;;;;;;;5.57;1.52;;;;;;;15.48;58.53;101699.66;4921367;29;20059;-75
2022/07/08 05:29:57;;;;;;;4.25;1.00;;;;;;;15.57;57.73;101705.50;4917052;28;20059;-76
2022/07/08 05:32:24;;;;;;;6.07;1.13;;;;;;;15.71;57.42;101719.06;4919962;28;20817;-74
2022/07/08 05:34:58;;;;;;;5.85;1.15;;;;;;;15.85;57.88;101723.72;4918345;28;20054;-75
2022/07/08 05:37:25;;;;;;;6.30;1.02;;;;;;;15.86;57.13;101700.56;4916558;28;20051;-75
2022/07/08 05:39:51;;;;;;;6.10;1.20;;;;;;;15.99;56.38;101723.94;4921269;28;20099;-77
2022/07/08 05:42:18;;;;;;;11.20;1.70;;;;;;;16.04;55.50;101737.06;4917992;28;20052;-75
2022/07/08 05:44:45;;;;;;;5.60;1.10;;;;;;;15.98;56.29;101740.03;4918336;29;20148;-78
2022/07/08 05:47:13;;;;;;;5.20;1.15;;;;;;;15.95;55.23;101732.16;4916563;28;20060;-75
2022/07/08 05:49:43;;;;;;;6.35;1.00;;;;;;;15.81;54.87;101714.13;4917512;29;20161;-77
2022/07/08 05:52:10;;;;;;;4.03;1.00;;;;;;;16.07;55.45;101747.59;4916405;28;20056;-77
2022/07/08 05:54:38;;;;;;;6.35;1.10;;;;;;;16.16;55.17;101741.81;4920418;28;20646;-74
2022/07/08 05:57:05;;;;;;;6.50;1.15;;;;;;;16.08;54.20;101720.81;4919699;29;20066;-76
2022/07/08 05:59:32;;;;;;;3.67;0.98;;;;;;;16.26;53.77;101748.44;4921851;29;20059;-76
2022/07/08 06:01:59;;;;;;;5.38;0.90;;;;;;;16.30;53.92;101757.19;4919229;28;20096;-76
2022/07/08 06:04:25;;;;;;;10.88;1.20;;;;;;;16.34;53.76;101756.97;4916038;28;20063;-75
2022/07/08 06:06:52;;;;;;;9.35;1.20;;;;;;;16.24;53.29;101761.00;4919236;28;20382;-72
2022/07/08 06:09:19;;;;;;;3.85;1.35;;;;;;;16.29;53.21;101758.13;4916954;28;20098;-74
2022/07/08 06:11:46;;;;;;;5.93;1.02;;;;;;;16.48;52.79;101759.81;4920691;29;20112;-73
2022/07/08 06:14:13;;;;;;;5.63;1.25;;;;;;;16.54;51.41;101771.13;4917063;28;20514;-80
2022/07/08 06:16:39;;;;;;;4.57;1.20;;;;;;;16.54;51.16;101771.13;4917518;28;20044;-72
2022/07/08 06:19:06;;;;;;;3.25;1.10;;;;;;;16.52;50.91;101770.34;4918246;28;20123;-76
2022/07/08 06:21:33;;;;;;;5.38;1.08;;;;;;;16.55;51.11;101778.19;4920589;28;20043;-75
2022/07/08 06:24:00;;;;;;;8.32;1.35;;;;;;;16.66;51.84;101776.78;4916840;29;20059;-78
2022/07/08 06:26:27;;;;;;;7.10;1.52;;;;;;;16.91;51.34;101781.72;4918515;28;20055;-75
2022/07/08 06:28:54;;;;;;;6.05;1.00;;;;;;;17.06;50.07;101769.38;4917894;29;20564;-75
2022/07/08 06:31:21;;;;;;;8.75;1.13;;;;;;;17.12;49.50;101769.06;4917867;28;20496;-75
2022/07/08 06:33:48;;;;;;;4.28;1.00;;;;;;;16.98;49.52;101783.16;4914182;28;20055;-74
2022/07/08 06:36:15;;;;;;;4.40;0.98;;;;;;;17.00;50.60;101769.72;4915820;28;20517;-73
2022/07/08 06:38:41;;;;;;;7.47;1.30;;;;;;;17.26;49.72;101781.72;4913586;28;20051;-76
2022/07/08 06:41:08;;;;;;;4.75;1.00;;;;;;;17.09;48.57;101756.69;4920553;28;20525;-75
2022/07/08 06:43:34;;;;;;;4.78;1.10;;;;;;;17.03;48.66;101751.66;4917901;28;20056;-71
2022/07/08 06:46:01;;;;;;;5.60;0.90;;;;;;;17.18;48.48;101771.41;4919075;28;20481;-74
2022/07/08 06:48:28;;;;;;;6.40;1.33;;;;;;;17.25;48.81;101777.31;4914443;28;20060;-69
2022/07/08 06:50:55;;;;;;;9.40;1.20;;;;;;;17.13;48.38;101763.63;4915235;28;20068;-75
2022/07/08 06:53:22;;;;;;;8.07;0.90;;;;;;;17.07;48.38;101776.44;4916129;28;20063;-74
2022/07/08 06:55:49;;;;;;;6.15;1.10;;;;;;;17.31;48.56;101787.69;4920671;28;20052;-74
2022/07/08 06:58:16;;;;;;;8.65;1.30;;;;;;;17.52;47.66;101792.75;4920770;28;20055;-73
2022/07/08 07:00:43;;;;;;;4.80;1.20;;;;;;;17.43;48.34;101784.38;4925673;28;20056;-76
2022/07/08 07:03:10;;;;;;;5.72;1.48;;;;;;;17.40;48.43;101792.56;4930941;28;20473;-77
2022/07/08 07:05:37;;;;;;;5.90;1.17;;;;;;;17.33;48.10;101785.78;4934295;28;20090;-74
2022/07/08 07:08:04;;;;;;;7.10;1.08;;;;;;;17.27;47.93;101764.72;4929020;28;20099;-76
2022/07/08 07:10:30;;;;;;;8.57;0.90;;;;;;;17.35;48.82;101778.53;4925515;28;20051;-74
2022/07/08 07:12:57;;;;;;;5.40;1.25;;;;;;;17.18;48.40;101777.63;4926644;28;20090;-75
2022/07/08 07:15:24;;;;;;;7.38;1.40;;;;;;;17.33;49.11;101783.97;4931844;29;20063;-75
2022/07/08 07:17:51;;;;;;;5.32;1.20;;;;;;;17.49;47.94;101787.56;4929699;28;20052;-73
2022/07/08 07:20:18;;;;;;;3.42;0.90;;;;;;;17.67;47.43;101785.75;4931496;28;20120;-74
2022/07/08 07:22:46;;;;;;;8.38;1.15;;;;;;;17.87;46.37;101782.84;4927202;28;20384;-74
2022/07/08 07:25:13;;;;;;;7.88;1.27;;;;;;;18.06;46.18;101788.03;4926391;29;20790;-75
2022/07/08 07:27:40;;;;;;;6.00;0.90;;;;;;;17.72;46.71;101785.50;4923698;28;20112;-73
2022/07/08 07:30:08;;;;;;;5.60;0.95;;;;;;;17.51;47.74;101784.81;4923700;29;20107;-76
2022/07/08 07:32:35;;;;;;;5.25;0.93;;;;;;;17.43;48.71;101793.25;4920582;28;20043;-75
2022/07/08 07:35:02;;;;;;;4.18;1.20;;;;;;;17.31;48.41;101769.81;4923138;28;20056;-74
2022/07/08 07:37:34;;;;;;;5.45;1.02;;;;;;;17.25;47.79;101770.13;4922079;29;20051;-74
2022/07/08 07:40:03;;;;;;;4.90;1.13;;;;;;;17.39;49.40;101786.34;4923820;28;20066;-72
2022/07/08 07:42:30;;;;;;;7.75;1.20;;;;;;;17.56;47.24;101803.31;4925301;28;20055;-74
2022/07/08 07:44:56;;;;;;;3.45;0.88;;;;;;;17.56;47.41;101798.81;4923401;28;20039;-75
2022/07/08 07:47:23;;;;;;;5.82;1.17;;;;;;;17.44;48.03;101799.50;4923699;29;20400;-76
2022/07/08 07:49:50;;;;;;;3.55;1.13;;;;;;;17.70;48.41;101806.13;4925747;28;20472;-70
2022/07/08 07:52:17;;;;;;;4.68;1.20;;;;;;;18.47;46.12;101799.09;4921008;29;20040;-74
2022/07/08 07:54:44;;;;;;;9.15;1.40;;;;;;;19.27;42.87;101785.38;4922148;29;20135;-73
2022/07/08 07:57:11;;;;;;;5.47;1.10;;;;;;;19.77;42.16;101785.91;4922002;28;20079;-71
2022/07/08 07:59:39;;;;;;;6.45;0.90;;;;;;;20.09;41.51;101792.78;4923335;28;20051;-73
2022/07/08 08:02:06;;;;;;;3.55;0.98;;;;;;;20.45;40.21;101796.75;4925114;28;20555;-76
2022/07/08 08:04:33;;;;;;;7.82;1.40;;;;;;;20.70;39.45;101791.44;4924540;28;20144;-76
2022/07/08 08:07:00;;;;;;;4.45;1.20;;;;;;;20.86;39.34;101796.66;4925495;29;20416;-70
2022/07/08 08:09:27;;;;;;;5.97;1.10;;;;;;;20.88;40.15;101800.13;4920889;28;20710;-71
2022/07/08 08:11:53;;;;;;;4.53;1.20;;;;;;;21.02;39.45;101786.56;4921513;29;20385;-74
2022/07/08 08:14:20;;;;;;;3.92;0.93;;;;;;;21.53;39.12;101800.13;4924645;28;20436;-75
2022/07/08 08:16:47;;;;;;;5.88;0.82;;;;;;;21.70;38.43;101794.38;4923348;28;20040;-75
2022/07/08 08:19:14;;;;;;;5.20;0.88;;;;;;;21.63;38.21;101803.88;4925247;28;20127;-75
2022/07/08 08:21:40;;;;;;;6.50;1.10;;;;;;;21.64;38.61;101808.28;4925598;28;20426;-73
2022/07/08 08:24:07;;;;;;;6.10;1.17;;;;;;;21.84;38.36;101814.97;4925431;28;20075;-72
2022/07/08 08:26:34;;;;;;;4.82;1.30;;;;;;;21.66;38.46;101814.44;4927163;28;20044;-77
2022/07/08 08:29:01;;;;;;;7.40;1.30;;;;;;;21.47;38.35;101808.63;4924287;28;20066;-74
2022/07/08 08:31:28;;;;;;;3.53;0.90;;;;;;;21.60;38.55;101814.88;4922418;29;20064;-75
2022/07/08 08:33:55;;;;;;;3.42;1.35;;;;;;;21.81;37.47;101813.34;4929418;28;20060;-74
2022/07/08 08:36:23;;;;;;;2.25;0.90;;;;;;;21.99;38.16;101797.69;4929126;28;20048;-74
2022/07/08 08:38:50;;;;;;;3.97;1.10;;;;;;;22.24;36.76;101813.81;4923917;28;20047;-74
2022/07/08 08:41:16;;;;;;;5.57;1.08;;;;;;;22.30;36.98;101801.72;4933335;28;20044;-72
2022/07/08 08:43:43;;;;;;;4.93;1.20;;;;;;;22.31;36.52;101811.53;4937889;28;20047;-74
2022/07/08 08:46:17;;;;;;;4.65;1.30;;;;;;;22.18;37.66;101813.41;4929022;29;20581;-74
2022/07/08 08:48:48;;;;;;;5.30;1.13;;;;;;;21.93;37.47;101807.06;4931191;28;20051;-74
2022/07/08 08:51:20;;;;;;;4.88;1.10;;;;;;;21.92;37.18;101796.38;4924952;28;20112;-75
2022/07/08 08:53:47;;;;;;;6.82;1.30;;;;;;;21.99;37.21;101801.28;4930810;29;20043;-73
2022/07/08 08:56:16;;;;;;;5.63;0.80;;;;;;;21.91;37.16;101809.00;4930529;28;20087;-72
2022/07/08 08:58:48;;;;;;;6.00;1.38;;;;;;;22.02;36.65;101809.16;4930848;28;20079;-76
2022/07/08 09:01:16;;;;;;;4.07;0.80;;;;;;;22.23;36.09;101805.81;4926347;28;20055;-75
2022/07/08 09:03:43;;;;;;;3.78;1.10;;;;;;;22.16;36.61;101810.84;4936392;28;20132;-76
2022/07/08 09:06:11;;;;;;;3.70;0.82;;;;;;;21.79;36.68;101809.03;4922375;28;20553;-76
2022/07/08 09:08:39;;;;;;;4.45;1.10;;;;;;;21.28;38.42;101787.47;4932161;28;20508;-74
2022/07/08 09:11:07;;;;;;;7.25;1.38;;;;;;;20.68;40.29;101809.53;4932972;28;20076;-74
2022/07/08 09:13:34;;;;;;;4.90;1.17;;;;;;;20.14;41.14;101809.47;4933289;28;20084;-75
2022/07/08 09:16:07;;;;;;;4.95;1.10;;;;;;;20.07;41.25;101812.66;4938117;28;20396;-77
2022/07/08 09:18:35;;;;;;;6.88;1.40;;;;;;;19.98;41.97;101794.44;4930656;28;20056;-74
2022/07/08 09:21:03;;;;;;;5.28;1.10;;;;;;;19.73;41.44;101781.66;4935393;28;20518;-76
2022/07/08 09:23:37;;;;;;;6.22;1.42;;;;;;;19.61;41.84;101799.44;4929978;28;20055;-77
2022/07/08 09:26:06;;;;;;;3.35;1.10;;;;;;;19.81;42.12;101807.13;4936481;28;20047;-76
2022/07/08 09:28:37;;;;;;;6.07;1.40;;;;;;;20.24;40.91;101798.97;4932278;28;20052;-76
2022/07/08 09:31:05;;;;;;;;;;;;;;;20.60;40.50;101801.13;4942437;28;20076;-76
2022/07/08 09:33:32;;;;;;;5.57;1.20;;;;;;;20.78;40.38;101788.25;4936946;28;19985;-76
2022/07/08 09:36:01;;;;;;;4.68;1.10;;;;;;;20.78;40.12;101799.03;4932576;28;20054;-73
2022/07/08 09:38:30;;;;;;;7.93;1.60;;;;;;;20.33;40.00;101792.97;4937224;28;20102;-75
2022/07/08 09:41:12;;;;;;;8.43;1.65;;;;;;;19.99;41.38;101780.84;4938115;28;20109;-76
2022/07/08 09:43:50;;;;;;;4.35;1.00;;;;;;;20.12;40.70;101783.66;4925337;28;20051;-75
2022/07/08 09:46:17;;;;;;;3.85;1.02;;;;;;;20.25;40.38;101784.56;4934694;28;20122;-76
2022/07/08 09:48:45;;;;;;;3.78;1.02;;;;;;;20.47;40.51;101802.88;4931862;28;20047;-76
2022/07/08 09:51:15;;;;;;;5.82;1.30;;;;;;;20.64;40.80;101787.31;4939329;28;20047;-76
2022/07/08 09:53:43;;;;;;;5.68;1.55;;;;;;;21.00;39.61;101800.13;4928929;28;20056;-76
2022/07/08 09:56:10;;;;;;;5.68;1.10;;;;;;;21.07;39.47;101799.72;4939168;28;20775;-75
2022/07/08 09:58:37;;;;;;;5.32;1.27;;;;;;;20.91;38.86;101799.91;4930536;28;20146;-76
2022/07/08 10:01:04;;;;;;;3.38;1.20;;;;;;;20.71;40.10;101790.47;4935766;28;20074;-75
2022/07/08 10:03:32;;;;;;;5.85;1.40;;;;;;;20.64;40.07;101802.59;4933486;28;20051;-75
2022/07/08 10:06:15;;;;;;;5.05;1.20;;;;;;;20.51;39.69;101794.50;4934191;28;20523;-75
2022/07/08 10:08:54;;;;;;;6.00;1.40;;;;;;;20.40;40.85;101788.97;4930493;28;20079;-76
2022/07/08 10:11:21;;;;;;;6.05;1.25;;;;;;;20.47;41.20;101792.97;4936450;28;20547;-76
2022/07/08 10:13:48;;;;;;;5.80;1.67;;;;;;;20.30;41.10;101787.84;4938309;28;20051;-72
2022/07/08 10:16:16;;;;;;;4.82;1.08;;;;;;;20.33;41.55;101782.22;4939209;28;20464;-76
2022/07/08 10:18:49;;;;;;;5.45;1.10;;;;;;;20.18;40.44;101776.03;4935728;28;20048;-74
2022/07/08 10:21:20;;;;;;;3.85;1.02;;;;;;;20.02;40.71;101780.66;4932389;28;20115;-76
2022/07/08 10:23:51;;;;;;;5.05;1.00;;;;;;;19.86;41.03;101767.34;4938282;28;20512;-73
2022/07/08 10:26:31;;;;;;;4.97;1.60;;;;;;;19.90;41.02;101774.25;4932231;28;20118;-74
2022/07/08 10:29:04;;;;;;;2.67;0.85;;;;;;;19.91;41.46;101772.44;4935119;28;20107;-75
2022/07/08 10:31:50;;;;;;;2.72;0.95;;;;;;;20.19;40.48;101771.50;4929304;28;20142;-74
2022/07/08 10:34:22;;;;;;;5.05;1.50;;;;;;;20.44;40.74;101758.22;4938519;28;20061;-73
2022/07/08 10:36:53;;;;;;;4.18;1.38;;;;;;;20.79;40.30;101766.59;4939234;28;20049;-73
2022/07/08 10:39:40;;;;;;;4.95;1.10;;;;;;;20.85;40.00;101750.03;4938919;28;20059;-73
2022/07/08 10:42:08;;;;;;;6.25;1.40;;;;;;;21.11;39.75;101758.97;4939499;28;20086;-75
2022/07/08 10:44:44;;;;;;;4.03;1.13;;;;;;;21.26;39.29;101770.56;4933884;28;20070;-75
2022/07/08 10:47:13;;;;;;;3.45;1.50;;;;;;;21.23;39.09;101763.56;4940739;28;20150;-75
2022/07/08 10:49:40;;;;;;;3.53;1.20;;;;;;;21.14;40.25;101741.75;4933457;28;20071;-72
2022/07/08 10:52:07;;;;;;;5.35;1.30;;;;;;;21.07;39.27;101735.94;4937421;28;20074;-76
2022/07/08 10:54:36;;;;;;;4.82;1.08;;;;;;;21.06;39.63;101758.47;4940371;28;20456;-71
2022/07/08 10:57:08;;;;;;;4.00;1.10;;;;;;;21.05;39.87;101756.75;4924776;29;20063;-73
2022/07/08 10:59:38;;;;;;;4.82;1.42;;;;;;;21.05;39.78;101743.28;4929641;29;20065;-75
2022/07/08 11:02:14;;;;;;;5.68;1.38;;;;;;;21.04;39.37;101757.69;4932739;28;20059;-75
2022/07/08 11:04:41;;;;;;;7.68;1.20;;;;;;;21.11;39.59;101748.22;4929126;28;21761;-75
2022/07/08 11:07:25;;;;;;;5.75;1.45;;;;;;;21.14;39.94;101753.38;4930179;29;20139;-74
2022/07/08 11:09:52;;;;;;;7.30;1.60;;;;;;;21.09;39.98;101749.31;4934246;28;20079;-74
2022/07/08 11:12:29;;;;;;;7.50;1.60;;;;;;;21.34;40.46;101739.44;4933068;28;20476;-76
2022/07/08 11:14:58;;;;;;;5.40;1.23;;;;;;;21.70;39.46;101741.31;4929198;28;20402;-74
2022/07/08 11:17:28;;;;;;;4.93;1.30;;;;;;;21.93;38.69;101738.78;4924665;28;20048;-74
2022/07/08 11:19:56;;;;;;;5.25;1.30;;;;;;;22.05;38.59;101741.47;4931253;28;20055;-76
2022/07/08 11:22:24;;;;;;;6.13;1.25;;;;;;;22.26;38.36;101735.44;4927754;28;20055;-75
2022/07/08 11:24:54;;;;;;;2.60;1.05;;;;;;;22.52;38.34;101734.34;4931755;28;20171;-75
2022/07/08 11:27:25;;;;;;;4.35;1.52;;;;;;;22.65;37.21;101708.16;4930518;28;20117;-73